Aviation Digital Data Service (ADDS)

Output produced by METARs form (0252 UTC 03 July 2022)
found at http://www.aviationweather.gov/metar/data/
 
Forecast for: KGRK (GRAY/FT HOOD , TX, US)
Text: TAF KGRK 030000Z 0300/0406 15010G18KT 9999 FEW070 QNH2982INS
Forecast period: 0000 to 0900 UTC 03 July 2022
Forecast type: FROM: standard forecast or significant change
Winds: from the SSE (150 degrees) at 12 MPH (10 knots; 5.1 m/s)
gusting to 21 MPH (18 knots; 9.3 m/s)
Visibility: 6 or more miles (10+ km)
Ceiling: at least 12,000 feet AGL
Clouds: few clouds at 7000 feet AGL
Weather: no significant weather forecast for this period
Text: BECMG 0309/0310 18006KT 9999 SCT015 QNH2998INS
Forecast period: 0900 to 1400 UTC 03 July 2022
Forecast type: BECOMING: Conditions expected to become as follows by 1000 UTC 03 July 2022
Winds: from the S (180 degrees) at 7 MPH (6 knots; 3.1 m/s)
Visibility: 6 or more miles (10+ km)
Ceiling: at least 12,000 feet AGL
Clouds: scattered clouds at 1500 feet AGL
Weather: no significant weather forecast for this period
Text: BECMG 0314/0315 20010KT 9999 FEW080 QNH3000INS TX37/0321Z TN26/0311Z
Forecast period: 1400 UTC 03 July 2022 to 0600 UTC 04 July 2022
Forecast type: BECOMING: Conditions expected to become as follows by 1500 UTC 03 July 2022
Winds: from the SSW (200 degrees) at 12 MPH (10 knots; 5.1 m/s)
Visibility: 6 or more miles (10+ km)
Ceiling: at least 12,000 feet AGL
Clouds: few clouds at 8000 feet AGL
Weather: no significant weather forecast for this period

Forecast for: KACT (WACO , TX, US)
Text: KACT 030251Z 0303/0324 17009KT P6SM FEW250
Forecast period: 0300 UTC 03 July 2022 to 0000 UTC 04 July 2022
Forecast type: FROM: standard forecast or significant change
Winds: from the S (170 degrees) at 10 MPH (9 knots; 4.6 m/s)
Visibility: 6 or more miles (10+ km)
Ceiling: at least 12,000 feet AGL
Clouds: few clouds at 25000 feet AGL
Weather: no significant weather forecast for this period